This is the latest recevied weather packets stored in our database for station/object G0TGD-10. If no packets are shown the sender has not sent any weather packets the latest 10 day(s).
| Time | Temp. | Humidity | Pressure | Rain* | Wind** | Luminosity | Snow |
|---|---|---|---|---|---|---|---|
| 1778167299 | 18.33° C | 51% | 1015 hPa | - | - | - | - |
| 1778166398 | 18.33° C | 51% | 1015.1 hPa | - | - | - | - |
| 1778165498 | 18.33° C | 51% | 1015.1 hPa | - | - | - | - |
| 1778164598 | 18.33° C | 51% | 1015.2 hPa | - | - | - | - |
| 1778163698 | 18.33° C | 51% | 1015.2 hPa | - | - | - | - |
| 1778162798 | 17.22° C | 52% | 1015.5 hPa | - | - | - | - |
| 1778161898 | 17.22° C | 51% | 1015.5 hPa | - | - | - | - |
| 1778160998 | 17.22° C | 52% | 1015.5 hPa | - | - | - | - |
| 1778160097 | 17.22° C | 51% | 1015.7 hPa | - | - | - | - |
| 1778159197 | 17.78° C | 51% | 1015.6 hPa | - | - | - | - |
| 1778158297 | 18.89° C | 50% | 1015.6 hPa | - | - | - | - |
| 1778157397 | 21.67° C | 48% | 1015.4 hPa | - | - | - | - |
| 1778156497 | 25.56° C | 47% | 1015.5 hPa | - | - | - | - |
| 1778155596 | 23.89° C | 50% | 1015.6 hPa | - | - | - | - |
| 1778154696 | 22.22° C | 51% | 1015.8 hPa | - | - | - | - |
| 1778153796 | 18.89° C | 55% | 1016 hPa | - | - | - | - |
| 1778152896 | 20.56° C | 53% | 1016 hPa | - | - | - | - |
| 1778151996 | 25.56° C | 50% | 1015.9 hPa | - | - | - | - |
| 1778151096 | 22.22° C | 54% | 1016.1 hPa | - | - | - | - |
| 1778150196 | 19.44° C | 56% | 1016.3 hPa | - | - | - | - |
| 1778149296 | 18.89° C | 57% | 1016.3 hPa | - | - | - | - |
| 1778148396 | 18.89° C | 56% | 1016.3 hPa | - | - | - | - |
| 1778147496 | 21.11° C | 56% | 1016.3 hPa | - | - | - | - |
| 1778146596 | 16.67° C | 61% | 1016.5 hPa | - | - | - | - |
| 1778145696 | 20° C | 56% | 1016.4 hPa | - | - | - | - |
* Rain since midnight (hover to see other rain measurements)
** Current wind speed in m/s (hover to see current wind gust speed)